Time;durP1;ratioP1;P1;durP2;ratioP2;P2;SDS_P1;SDS_P2;PMS_P1;PMS_P2;Temp;Humidity;BMP_temperature;BMP_pressure;BME280_temperature;BME280_humidity;BME280_pressure;Samples;Min_cycle;Max_cycle;Signal;HPM_P1;HPM_P2
2024/02/04 00:03:23;;;;;;;3.00;2.53;;;11.00;41.20;;;;;;10527319;28;22670;-72
2024/02/04 00:08:27;;;;;;;3.03;2.83;;;11.00;41.10;;;;;;10530256;28;20234;-69
2024/02/04 00:13:31;;;;;;;2.90;2.70;;;11.00;41.30;;;;;;10522749;28;21097;-69
2024/02/04 00:18:34;;;;;;;2.90;2.70;;;11.00;41.10;;;;;;10531130;28;20223;-69
2024/02/04 00:23:39;;;;;;;2.93;2.73;;;11.00;41.30;;;;;;10526932;28;20232;-69
2024/02/04 00:28:43;;;;;;;2.60;2.40;;;10.90;41.40;;;;;;10534804;28;20876;-72
2024/02/04 00:33:46;;;;;;;2.50;2.30;;;10.90;41.30;;;;;;10537250;28;20725;-72
2024/02/04 00:38:51;;;;;;;2.70;2.50;;;10.90;41.40;;;;;;10530359;28;20224;-69
2024/02/04 00:43:54;;;;;;;2.10;2.00;;;10.90;41.40;;;;;;10531463;28;20316;-70
2024/02/04 00:48:57;;;;;;;2.90;2.10;;;10.90;41.30;;;;;;10534415;27;20235;-71
2024/02/04 00:54:02;;;;;;;3.70;2.80;;;11.00;41.40;;;;;;10530682;28;20232;-71
2024/02/04 00:59:05;;;;;;;2.10;2.00;;;11.00;41.50;;;;;;10531404;28;20696;-71
2024/02/04 01:04:08;;;;;;;1.80;1.70;;;11.00;41.50;;;;;;10533085;28;20240;-72
2024/02/04 01:09:13;;;;;;;1.77;1.67;;;11.00;41.50;;;;;;10532488;28;20235;-72
2024/02/04 01:14:16;;;;;;;1.80;1.70;;;11.00;41.50;;;;;;10534977;28;20236;-72
2024/02/04 01:19:19;;;;;;;1.60;1.50;;;11.00;42.10;;;;;;10529867;28;20306;-71
2024/02/04 01:24:25;;;;;;;1.60;1.50;;;11.00;41.10;;;;;;10518028;28;20231;-72
2024/02/04 01:29:28;;;;;;;1.40;1.30;;;11.10;41.30;;;;;;10523955;28;20643;-71
2024/02/04 01:34:31;;;;;;;1.50;1.40;;;11.10;40.90;;;;;;10528211;28;20334;-71
2024/02/04 01:39:36;;;;;;;1.30;1.30;;;11.10;40.90;;;;;;10524559;28;20284;-71
2024/02/04 01:44:39;;;;;;;1.20;1.20;;;11.10;41.00;;;;;;10517570;28;20247;-72
2024/02/04 01:49:43;;;;;;;1.20;1.20;;;11.00;41.60;;;;;;10533002;28;20265;-72
2024/02/04 01:54:50;;;;;;;1.40;1.30;;;11.00;41.20;;;;;;10535315;28;20258;-72
2024/02/04 01:59:56;;;;;;;1.53;1.43;;;11.00;41.30;;;;;;10530118;28;20227;-72
2024/02/04 02:04:59;;;;;;;1.30;1.20;;;11.00;41.10;;;;;;10529848;28;20247;-72
2024/02/04 02:10:07;;;;;;;1.23;1.13;;;11.10;41.10;;;;;;10532409;28;20224;-71
2024/02/04 02:15:15;;;;;;;1.20;1.20;;;11.10;40.90;;;;;;10535323;28;20242;-72
2024/02/04 02:20:22;;;;;;;1.10;1.10;;;11.10;41.60;;;;;;10531474;28;20326;-72
2024/02/04 02:25:26;;;;;;;1.30;1.20;;;11.00;41.30;;;;;;10527980;28;20361;-69
2024/02/04 02:30:29;;;;;;;0.97;0.97;;;11.00;41.40;;;;;;10526893;28;20312;-72
2024/02/04 02:35:33;;;;;;;1.00;1.00;;;11.00;41.30;;;;;;10524986;28;20261;-72
2024/02/04 02:40:45;;;;;;;0.90;0.90;;;10.90;41.20;;;;;;10528145;28;20231;-71
2024/02/04 02:45:48;;;;;;;1.20;1.20;;;11.00;41.40;;;;;;10534390;28;20228;-72
2024/02/04 02:50:51;;;;;;;1.27;1.20;;;11.00;41.20;;;;;;10531190;28;20232;-72
2024/02/04 02:55:56;;;;;;;1.10;1.10;;;10.90;41.10;;;;;;10530199;28;20876;-69
2024/02/04 03:00:59;;;;;;;1.63;1.53;;;10.90;41.20;;;;;;10526156;28;20222;-71
2024/02/04 03:06:03;;;;;;;1.50;1.40;;;10.90;41.30;;;;;;10516879;28;20247;-71
2024/02/04 03:11:07;;;;;;;1.60;1.50;;;10.90;41.20;;;;;;10519610;28;20227;-71
2024/02/04 03:16:12;;;;;;;2.00;1.80;;;10.90;41.30;;;;;;10526135;28;20269;-69
2024/02/04 03:21:16;;;;;;;1.63;1.53;;;10.90;41.50;;;;;;10528838;28;20231;-71
2024/02/04 03:26:20;;;;;;;1.77;1.67;;;10.80;41.50;;;;;;10529792;28;21110;-71
2024/02/04 03:31:24;;;;;;;1.70;1.60;;;10.80;41.40;;;;;;10520821;28;20229;-71
2024/02/04 03:36:28;;;;;;;1.93;1.53;;;10.80;41.40;;;;;;10518438;28;20250;-71
2024/02/04 03:41:33;;;;;;;1.70;1.60;;;10.80;41.40;;;;;;10526907;28;20250;-69
2024/02/04 03:46:39;;;;;;;1.50;1.40;;;10.80;41.50;;;;;;10525798;28;20223;-69
2024/02/04 03:51:43;;;;;;;1.70;1.60;;;10.80;41.50;;;;;;10524063;28;20227;-69
2024/02/04 03:56:47;;;;;;;1.60;1.50;;;10.80;41.60;;;;;;10521591;28;20790;-71
2024/02/04 04:01:53;;;;;;;1.43;1.40;;;10.80;41.90;;;;;;10521137;28;20304;-71
2024/02/04 04:06:56;;;;;;;1.70;1.60;;;10.70;41.60;;;;;;10533786;28;20318;-68
2024/02/04 04:12:01;;;;;;;1.40;1.40;;;10.70;41.70;;;;;;10536903;28;20230;-69
2024/02/04 04:17:04;;;;;;;1.60;1.50;;;10.70;41.80;;;;;;10524844;28;20216;-71
2024/02/04 04:22:07;;;;;;;1.20;1.20;;;10.50;41.60;;;;;;10536461;27;20253;-71
2024/02/04 04:27:12;;;;;;;1.53;1.43;;;10.60;41.80;;;;;;10537666;28;20227;-71
2024/02/04 04:32:15;;;;;;;1.53;1.43;;;10.60;41.90;;;;;;10539543;28;20230;-70
2024/02/04 04:37:18;;;;;;;1.50;1.40;;;10.60;41.80;;;;;;10537883;28;20231;-72
2024/02/04 04:42:23;;;;;;;1.50;1.40;;;10.50;41.80;;;;;;10538124;28;20404;-69
2024/02/04 04:47:26;;;;;;;1.63;1.40;;;10.50;41.90;;;;;;10532417;27;20227;-71
2024/02/04 04:52:29;;;;;;;1.47;1.37;;;10.50;41.90;;;;;;10534554;28;21054;-71
2024/02/04 04:57:34;;;;;;;1.50;1.40;;;10.50;42.00;;;;;;10527510;28;20223;-71
2024/02/04 05:02:37;;;;;;;1.67;1.57;;;10.50;42.10;;;;;;10528712;28;20280;-71
2024/02/04 05:07:41;;;;;;;1.50;1.40;;;10.50;41.90;;;;;;10525118;28;20223;-71
2024/02/04 05:12:46;;;;;;;1.67;1.57;;;10.50;42.00;;;;;;10528135;28;20222;-71
2024/02/04 05:17:49;;;;;;;1.80;1.70;;;10.50;42.10;;;;;;10521963;28;20220;-71
2024/02/04 05:22:53;;;;;;;1.90;1.80;;;10.50;42.10;;;;;;10527004;28;20235;-71
2024/02/04 05:27:58;;;;;;;1.80;1.70;;;10.50;42.10;;;;;;10532737;28;20227;-71
2024/02/04 05:33:01;;;;;;;1.97;1.87;;;10.50;42.30;;;;;;10529324;28;20726;-71
2024/02/04 05:38:05;;;;;;;1.90;1.80;;;10.40;42.20;;;;;;10530329;28;20686;-71
2024/02/04 05:43:10;;;;;;;1.80;1.70;;;10.40;42.20;;;;;;10530322;28;20702;-71
2024/02/04 05:48:15;;;;;;;1.30;1.30;;;10.40;42.40;;;;;;10518411;28;20599;-71
2024/02/04 05:53:18;;;;;;;1.70;1.50;;;10.50;42.20;;;;;;10517080;28;20236;-71
2024/02/04 05:58:23;;;;;;;1.60;1.50;;;10.50;42.10;;;;;;10522344;28;20800;-72
2024/02/04 06:03:26;;;;;;;1.63;1.53;;;10.40;42.20;;;;;;10523238;28;20242;-69
2024/02/04 06:08:33;;;;;;;2.00;1.90;;;10.40;42.20;;;;;;10525961;28;20698;-71
2024/02/04 06:13:39;;;;;;;1.80;1.70;;;10.30;42.20;;;;;;10526075;28;20227;-69
2024/02/04 06:18:42;;;;;;;2.00;1.90;;;10.30;42.50;;;;;;10533951;28;20229;-69
2024/02/04 06:23:45;;;;;;;1.77;1.67;;;10.20;42.30;;;;;;10530502;28;20222;-72
2024/02/04 06:28:50;;;;;;;1.63;1.53;;;10.20;42.30;;;;;;10522525;27;20321;-72
2024/02/04 06:33:54;;;;;;;1.70;1.60;;;10.20;42.30;;;;;;10518869;28;20272;-69
2024/02/04 06:38:57;;;;;;;2.10;1.90;;;10.30;42.20;;;;;;10526976;27;20223;-71
2024/02/04 06:44:02;;;;;;;1.90;1.80;;;10.30;42.30;;;;;;10523117;28;20219;-72
2024/02/04 06:49:05;;;;;;;1.93;1.83;;;10.30;42.30;;;;;;10527948;28;20227;-69
2024/02/04 06:54:10;;;;;;;1.70;1.60;;;10.30;42.30;;;;;;10528994;28;20228;-71
2024/02/04 06:59:15;;;;;;;2.43;1.90;;;10.30;42.20;;;;;;10530339;28;20259;-69
2024/02/04 07:04:18;;;;;;;2.10;2.00;;;10.30;42.40;;;;;;10528096;28;20231;-72
2024/02/04 07:09:22;;;;;;;2.10;2.00;;;10.30;42.20;;;;;;10528779;28;20709;-69
2024/02/04 07:14:26;;;;;;;1.80;1.70;;;10.30;42.20;;;;;;10525179;28;20706;-71
2024/02/04 07:19:29;;;;;;;2.13;2.03;;;10.30;42.30;;;;;;10521987;28;20228;-69
2024/02/04 07:24:32;;;;;;;2.30;2.10;;;10.30;42.20;;;;;;10529463;28;20718;-68
2024/02/04 07:29:37;;;;;;;2.70;2.50;;;10.30;42.20;;;;;;10528494;27;20253;-71
2024/02/04 07:34:41;;;;;;;2.63;2.43;;;10.40;42.20;;;;;;10530348;27;20784;-71
2024/02/04 07:39:44;;;;;;;2.83;2.63;;;10.40;42.10;;;;;;10536335;28;20230;-72
2024/02/04 07:44:49;;;;;;;2.70;2.50;;;10.40;42.10;;;;;;10541238;28;20851;-72
2024/02/04 07:49:52;;;;;;;2.53;2.33;;;10.40;42.20;;;;;;10541228;27;20224;-72
2024/02/04 07:54:56;;;;;;;3.10;2.37;;;10.40;42.20;;;;;;10536429;28;20234;-72
2024/02/04 08:00:03;;;;;;;2.70;2.37;;;10.50;42.20;;;;;;10541885;28;20223;-72
2024/02/04 08:05:07;;;;;;;4.07;2.80;;;10.50;42.20;;;;;;10532905;28;20303;-72
2024/02/04 08:10:11;;;;;;;2.40;2.20;;;10.50;42.20;;;;;;10538234;28;20231;-72
2024/02/04 08:15:16;;;;;;;1.97;1.87;;;10.50;42.20;;;;;;10534317;28;20259;-72
2024/02/04 08:20:21;;;;;;;2.30;2.10;;;10.50;42.20;;;;;;10542737;28;20219;-72
2024/02/04 08:25:24;;;;;;;2.23;2.07;;;10.50;42.20;;;;;;10532661;28;20311;-72
2024/02/04 08:30:28;;;;;;;2.10;2.00;;;10.60;42.20;;;;;;10533926;27;20230;-72
2024/02/04 08:35:31;;;;;;;2.27;2.10;;;10.60;42.20;;;;;;10538229;27;20238;-72
2024/02/04 08:40:35;;;;;;;2.23;2.03;;;10.70;42.30;;;;;;10532257;28;20224;-72
2024/02/04 08:45:39;;;;;;;2.37;2.23;;;10.70;42.10;;;;;;10529884;28;20620;-72
2024/02/04 08:50:42;;;;;;;2.30;2.10;;;10.70;42.10;;;;;;10529999;27;20256;-72
2024/02/04 08:55:46;;;;;;;2.13;1.93;;;10.80;42.20;;;;;;10532403;28;20224;-72
2024/02/04 09:00:54;;;;;;;6.57;5.87;;;10.90;42.30;;;;;;10534063;27;20224;-72
2024/02/04 09:05:57;;;;;;;3.13;2.40;;;10.90;42.20;;;;;;10532513;27;20265;-72
2024/02/04 09:11:00;;;;;;;4.83;3.40;;;10.90;42.00;;;;;;10535145;27;20839;-72
2024/02/04 09:16:05;;;;;;;3.20;2.67;;;11.00;42.10;;;;;;10521881;28;20234;-71
2024/02/04 09:21:09;;;;;;;2.70;2.50;;;11.00;42.00;;;;;;10534298;28;20311;-71
2024/02/04 09:26:12;;;;;;;2.47;2.27;;;11.00;42.00;;;;;;10533314;28;20227;-72
2024/02/04 09:31:22;;;;;;;2.57;2.33;;;11.10;41.90;;;;;;10527368;28;20788;-72
2024/02/04 09:36:26;;;;;;;3.13;2.00;;;11.10;41.80;;;;;;10522251;28;20580;-71
2024/02/04 09:41:30;;;;;;;2.10;2.00;;;11.10;41.80;;;;;;10521198;28;20224;-71
2024/02/04 09:46:34;;;;;;;1.80;1.67;;;11.10;41.80;;;;;;10521023;28;20331;-72
2024/02/04 09:51:38;;;;;;;1.70;1.60;;;11.20;41.80;;;;;;10529610;28;20757;-72
2024/02/04 09:56:42;;;;;;;2.37;2.17;;;11.20;41.90;;;;;;10527043;28;20342;-69
2024/02/04 10:01:48;;;;;;;1.63;1.47;;;11.30;42.10;;;;;;10527787;28;20637;-68
2024/02/04 10:06:51;;;;;;;1.60;1.50;;;11.40;42.10;;;;;;10526880;28;20230;-67
2024/02/04 10:11:55;;;;;;;1.37;1.20;;;11.50;42.90;;;;;;10522095;27;20224;-68
2024/02/04 10:16:59;;;;;;;1.67;1.37;;;11.50;41.80;;;;;;10529954;28;20236;-68
2024/02/04 10:22:03;;;;;;;1.30;1.20;;;11.50;41.30;;;;;;10532354;28;20258;-68
2024/02/04 10:27:07;;;;;;;1.33;1.30;;;11.50;41.30;;;;;;10525921;28;20786;-68
2024/02/04 10:32:22;;;;;;;1.60;1.50;;;11.60;41.60;;;;;;10531902;28;20231;-68
2024/02/04 10:37:27;;;;;;;1.50;1.40;;;11.70;41.60;;;;;;10529616;28;20741;-68
2024/02/04 10:42:33;;;;;;;1.53;1.43;;;11.70;41.40;;;;;;10529405;27;20247;-68
2024/02/04 10:47:39;;;;;;;1.77;1.67;;;11.70;41.50;;;;;;10524883;28;20750;-70
2024/02/04 10:52:47;;;;;;;1.60;1.50;;;11.70;41.40;;;;;;10524777;28;20718;-68
2024/02/04 10:57:51;;;;;;;2.00;1.90;;;11.80;41.80;;;;;;10528414;28;20223;-68
2024/02/04 11:02:56;;;;;;;1.60;1.50;;;11.90;42.00;;;;;;10527009;28;20280;-68
2024/02/04 11:08:00;;;;;;;1.20;1.20;;;12.10;41.80;;;;;;10523873;28;20868;-68
2024/02/04 11:13:05;;;;;;;1.23;1.10;;;12.10;41.80;;;;;;10523753;28;20224;-68
2024/02/04 11:18:44;;;;;;;1.40;1.20;;;12.20;41.90;;;;;;10518969;28;20223;-68
2024/02/04 11:24:00;;;;;;;1.43;1.33;;;12.20;41.50;;;;;;10525738;28;20229;-68
2024/02/04 11:29:04;;;;;;;2.80;1.10;;;12.20;41.40;;;;;;10528140;28;20310;-68
2024/02/04 11:34:09;;;;;;;1.00;1.00;;;12.20;41.80;;;;;;10530128;28;20227;-71
2024/02/04 11:39:14;;;;;;;8.27;6.47;;;12.20;41.50;;;;;;10521510;28;20235;-71
2024/02/04 11:44:22;;;;;;;2.27;2.07;;;12.30;41.80;;;;;;10523358;28;20231;-71
2024/02/04 11:49:27;;;;;;;1.50;1.40;;;12.30;41.40;;;;;;10524398;28;20230;-71
2024/02/04 11:54:31;;;;;;;2.60;1.57;;;12.30;41.30;;;;;;10523782;28;20281;-71
2024/02/04 11:59:35;;;;;;;1.40;1.27;;;12.40;41.50;;;;;;10525400;28;20276;-72
2024/02/04 12:04:40;;;;;;;1.37;1.27;;;12.30;41.30;;;;;;10524457;28;20227;-72
2024/02/04 12:09:44;;;;;;;1.07;1.07;;;12.30;41.30;;;;;;10526767;28;20590;-72
2024/02/04 12:14:50;;;;;;;1.10;1.10;;;12.30;41.30;;;;;;10530682;28;20234;-72
2024/02/04 12:19:55;;;;;;;1.50;1.40;;;12.30;41.40;;;;;;10532165;28;20215;-72
2024/02/04 12:24:58;;;;;;;1.60;1.50;;;12.30;41.60;;;;;;10532061;28;20928;-72
2024/02/04 12:30:02;;;;;;;1.40;1.30;;;12.30;41.30;;;;;;10534818;28;20603;-70
2024/02/04 12:35:09;;;;;;;1.60;1.50;;;12.30;41.40;;;;;;10535750;28;20236;-71
2024/02/04 12:40:13;;;;;;;1.20;1.20;;;12.30;41.40;;;;;;10532348;28;20253;-71
2024/02/04 12:45:17;;;;;;;1.50;1.40;;;12.30;41.60;;;;;;10524146;28;20224;-71
2024/02/04 12:50:22;;;;;;;1.43;1.33;;;12.30;41.50;;;;;;10525878;28;20239;-71
2024/02/04 12:55:28;;;;;;;2.40;1.20;;;12.20;41.30;;;;;;10533455;27;20223;-71
2024/02/04 13:00:32;;;;;;;1.10;1.10;;;12.20;41.40;;;;;;10535361;27;20223;-71
2024/02/04 13:05:38;;;;;;;1.40;1.30;;;12.10;41.80;;;;;;10532434;28;20284;-71
2024/02/04 13:10:43;;;;;;;1.57;1.40;;;12.10;41.80;;;;;;10535696;28;20224;-71
2024/02/04 13:15:47;;;;;;;1.10;1.10;;;12.10;41.80;;;;;;10531896;28;20691;-70
2024/02/04 13:20:51;;;;;;;1.20;1.10;;;12.10;41.70;;;;;;10535588;28;20276;-71
2024/02/04 13:25:55;;;;;;;1.23;1.10;;;12.10;41.70;;;;;;10532246;28;20258;-70
2024/02/04 13:30:58;;;;;;;1.70;1.20;;;12.20;41.90;;;;;;10527265;28;20238;-70
2024/02/04 13:36:02;;;;;;;1.43;1.33;;;12.20;41.90;;;;;;10527999;28;20219;-71
2024/02/04 13:41:07;;;;;;;1.33;1.23;;;12.20;41.90;;;;;;10518524;27;20250;-71
2024/02/04 13:46:11;;;;;;;1.50;1.20;;;12.20;41.90;;;;;;10525831;28;20251;-70
2024/02/04 13:51:15;;;;;;;1.30;1.20;;;12.30;42.00;;;;;;10521073;28;20223;-70
2024/02/04 13:56:34;;;;;;;1.33;1.23;;;12.30;42.00;;;;;;10526145;27;20223;-68
2024/02/04 14:01:37;;;;;;;1.77;1.23;;;12.40;41.70;;;;;;10531921;27;20229;-68
2024/02/04 14:06:42;;;;;;;2.37;1.20;;;12.40;41.60;;;;;;10529729;28;20231;-68
2024/02/04 14:11:45;;;;;;;2.53;1.20;;;12.40;41.60;;;;;;10535590;28;20230;-68
2024/02/04 14:16:49;;;;;;;1.00;0.90;;;12.50;41.70;;;;;;10521791;28;20223;-71
2024/02/04 14:21:54;;;;;;;1.20;1.10;;;12.50;41.60;;;;;;10521272;28;20262;-71
2024/02/04 14:26:58;;;;;;;1.70;1.60;;;12.50;41.40;;;;;;10522739;28;20319;-71
2024/02/04 14:32:01;;;;;;;1.63;1.50;;;12.60;41.60;;;;;;10522776;28;20575;-71
2024/02/04 14:37:06;;;;;;;2.23;1.80;;;12.60;41.50;;;;;;10527612;28;20228;-70
2024/02/04 14:42:13;;;;;;;2.30;2.10;;;12.70;41.40;;;;;;10527880;28;20228;-71
2024/02/04 14:47:16;;;;;;;2.30;1.80;;;12.80;41.50;;;;;;10523748;28;20579;-71
2024/02/04 14:52:21;;;;;;;1.50;1.30;;;12.80;41.40;;;;;;10530516;28;20237;-68
2024/02/04 14:57:24;;;;;;;2.87;2.00;;;12.90;41.40;;;;;;10525425;28;20318;-67
2024/02/04 15:02:28;;;;;;;2.00;1.90;;;12.80;41.30;;;;;;10526032;27;20936;-67
2024/02/04 15:07:32;;;;;;;1.70;1.60;;;12.90;41.40;;;;;;10526677;28;20227;-72
2024/02/04 15:12:36;;;;;;;1.60;1.50;;;12.90;41.30;;;;;;10521411;28;20724;-71
2024/02/04 15:17:40;;;;;;;1.57;1.47;;;12.90;41.40;;;;;;10524110;28;20227;-71
2024/02/04 15:22:45;;;;;;;1.43;1.33;;;13.00;41.30;;;;;;10524398;28;20262;-72
2024/02/04 15:27:52;;;;;;;1.83;1.73;;;13.00;41.10;;;;;;10527444;28;20243;-71
2024/02/04 15:32:56;;;;;;;1.40;1.30;;;13.00;41.10;;;;;;10533930;28;20219;-70
2024/02/04 15:38:01;;;;;;;3.07;1.40;;;13.00;41.20;;;;;;10527759;28;20628;-69
2024/02/04 15:43:04;;;;;;;2.10;1.30;;;13.00;41.20;;;;;;10528133;28;20229;-69
2024/02/04 15:48:11;;;;;;;1.00;1.00;;;13.10;41.10;;;;;;10525230;28;20222;-71
2024/02/04 15:53:17;;;;;;;1.40;1.30;;;13.10;40.90;;;;;;10530432;28;20717;-71
2024/02/04 15:58:22;;;;;;;1.10;1.00;;;13.10;40.90;;;;;;10525899;27;20230;-71
2024/02/04 16:03:25;;;;;;;1.30;1.13;;;13.10;41.10;;;;;;10535631;28;20253;-67
2024/02/04 16:08:31;;;;;;;1.40;1.30;;;13.00;41.20;;;;;;10534520;28;20250;-67
2024/02/04 16:13:35;;;;;;;1.80;1.20;;;13.10;41.10;;;;;;10536991;28;20232;-69
2024/02/04 16:18:38;;;;;;;1.73;1.40;;;13.00;41.30;;;;;;10536996;28;20223;-69
2024/02/04 16:23:43;;;;;;;1.80;1.60;;;13.00;41.20;;;;;;10536755;27;20228;-69
2024/02/04 16:28:46;;;;;;;1.60;1.50;;;13.00;41.20;;;;;;10531629;27;20275;-69
2024/02/04 16:33:50;;;;;;;1.87;1.60;;;13.00;41.30;;;;;;10537413;27;20723;-69
2024/02/04 16:38:54;;;;;;;1.40;1.30;;;13.00;41.30;;;;;;10535685;27;20234;-69
2024/02/04 16:43:58;;;;;;;2.13;1.30;;;13.00;41.20;;;;;;10534837;28;20222;-72
2024/02/04 16:49:01;;;;;;;1.87;1.50;;;13.10;41.30;;;;;;10529395;28;20314;-72
2024/02/04 16:54:06;;;;;;;2.33;1.40;;;13.20;41.40;;;;;;10533527;28;21084;-71
2024/02/04 16:59:09;;;;;;;4.10;3.80;;;13.20;41.20;;;;;;10535861;28;20219;-68
2024/02/04 17:04:14;;;;;;;2.27;1.40;;;13.20;41.30;;;;;;10534312;28;20316;-68
2024/02/04 17:09:19;;;;;;;1.90;1.37;;;13.20;41.20;;;;;;10531166;28;20224;-72
2024/02/04 17:14:25;;;;;;;1.93;1.50;;;13.20;41.10;;;;;;10536780;28;20237;-72
2024/02/04 17:19:39;;;;;;;2.43;2.23;;;13.20;41.20;;;;;;10536190;28;20218;-72
2024/02/04 17:24:49;;;;;;;1.57;1.47;;;13.20;41.10;;;;;;10533271;27;20250;-68
2024/02/04 17:29:57;;;;;;;1.60;1.50;;;13.20;41.10;;;;;;10532180;28;20251;-68
2024/02/04 17:35:00;;;;;;;1.60;1.50;;;13.20;41.30;;;;;;10531955;28;20318;-68
2024/02/04 17:40:06;;;;;;;1.40;1.30;;;13.20;41.30;;;;;;10531623;28;20653;-71
2024/02/04 17:45:11;;;;;;;3.17;1.43;;;13.30;41.20;;;;;;10530450;28;20231;-72
2024/02/04 17:50:14;;;;;;;1.70;1.60;;;13.30;41.20;;;;;;10527916;28;20334;-72
2024/02/04 17:55:20;;;;;;;1.60;1.50;;;13.30;41.20;;;;;;10527822;27;20237;-72
2024/02/04 18:00:23;;;;;;;2.17;1.50;;;13.30;41.10;;;;;;10528761;28;20659;-72
2024/02/04 18:05:27;;;;;;;3.10;2.30;;;13.30;41.30;;;;;;10529829;27;20244;-72
2024/02/04 18:10:32;;;;;;;1.33;1.13;;;13.30;41.20;;;;;;10508342;28;20239;-72
2024/02/04 18:15:36;;;;;;;3.03;1.23;;;13.30;41.20;;;;;;10511120;28;20235;-68
2024/02/04 18:20:39;;;;;;;1.67;1.23;;;13.30;41.40;;;;;;10513557;27;20231;-68
2024/02/04 18:25:43;;;;;;;1.30;1.20;;;13.30;41.20;;;;;;10506485;28;20227;-69
2024/02/04 18:30:49;;;;;;;1.23;1.13;;;13.30;41.10;;;;;;10512182;27;20230;-70
2024/02/04 18:35:53;;;;;;;1.27;1.10;;;13.30;41.10;;;;;;10509867;28;20224;-70
2024/02/04 18:40:57;;;;;;;1.30;1.20;;;13.30;41.20;;;;;;10509790;28;20225;-70
2024/02/04 18:46:01;;;;;;;1.30;1.10;;;13.30;41.10;;;;;;10512084;28;20227;-70
2024/02/04 18:51:05;;;;;;;1.73;1.63;;;13.30;41.10;;;;;;10510119;28;20215;-70
2024/02/04 18:56:15;;;;;;;1.30;1.20;;;13.30;40.90;;;;;;10509812;28;20247;-72
2024/02/04 19:01:22;;;;;;;2.20;1.33;;;13.40;40.90;;;;;;10510964;28;20254;-71
2024/02/04 19:06:26;;;;;;;1.30;1.20;;;13.30;40.90;;;;;;10506300;28;20612;-72
2024/02/04 19:11:31;;;;;;;1.90;1.70;;;13.30;40.90;;;;;;10507864;28;20219;-72
2024/02/04 19:16:38;;;;;;;2.07;1.30;;;13.30;40.80;;;;;;10528460;28;20239;-72
2024/02/04 19:21:46;;;;;;;1.80;1.50;;;13.30;40.80;;;;;;10524187;28;20230;-72
2024/02/04 19:26:50;;;;;;;1.70;1.60;;;13.30;40.60;;;;;;10520104;28;20223;-72
2024/02/04 19:31:54;;;;;;;1.00;1.00;;;13.20;40.60;;;;;;10519214;27;20224;-72
2024/02/04 19:36:58;;;;;;;1.47;1.20;;;13.20;40.70;;;;;;10538361;28;20304;-72
2024/02/04 19:42:04;;;;;;;2.53;1.27;;;13.10;40.70;;;;;;10521345;27;20264;-71
2024/02/04 19:47:07;;;;;;;0.90;0.90;;;13.10;40.60;;;;;;10516101;27;20288;-71
2024/02/04 19:52:10;;;;;;;1.50;1.20;;;13.10;40.70;;;;;;10516777;27;20227;-72
2024/02/04 19:57:15;;;;;;;1.67;1.00;;;13.00;40.60;;;;;;10520982;28;20227;-72
2024/02/04 20:02:18;;;;;;;1.20;1.10;;;13.00;40.70;;;;;;10515390;28;20234;-72
2024/02/04 20:07:21;;;;;;;1.00;1.00;;;12.90;40.70;;;;;;10514133;28;20888;-72
2024/02/04 20:12:27;;;;;;;1.00;0.90;;;12.90;40.80;;;;;;10512752;27;20226;-72
2024/02/04 20:17:30;;;;;;;1.17;1.10;;;12.90;40.60;;;;;;10505119;28;20247;-72
2024/02/04 20:22:33;;;;;;;1.03;0.90;;;12.90;40.60;;;;;;10507287;28;20219;-72
2024/02/04 20:27:38;;;;;;;1.10;1.10;;;12.90;40.50;;;;;;10514935;28;20254;-72
2024/02/04 20:32:44;;;;;;;0.80;0.80;;;12.90;40.40;;;;;;10514508;28;20219;-72
2024/02/04 20:37:47;;;;;;;0.90;0.90;;;12.80;40.30;;;;;;10506049;28;20256;-70
2024/02/04 20:42:52;;;;;;;1.00;0.87;;;12.80;41.10;;;;;;10520954;27;20233;-70
2024/02/04 20:47:57;;;;;;;0.80;0.80;;;12.80;40.40;;;;;;10525581;28;20761;-70
2024/02/04 20:53:01;;;;;;;0.90;0.90;;;12.70;40.50;;;;;;10525384;27;20226;-70
2024/02/04 20:58:05;;;;;;;0.70;0.70;;;12.70;40.50;;;;;;10521347;28;20219;-70
2024/02/04 21:03:09;;;;;;;0.90;0.90;;;12.70;40.60;;;;;;10515732;27;20227;-70
2024/02/04 21:08:12;;;;;;;0.80;0.80;;;12.60;40.70;;;;;;10526803;28;20234;-70
2024/02/04 21:13:17;;;;;;;0.90;0.90;;;12.60;40.80;;;;;;10524949;27;20223;-72
2024/02/04 21:18:21;;;;;;;1.10;0.90;;;12.60;40.90;;;;;;10521886;28;20223;-72
2024/02/04 21:23:24;;;;;;;0.80;0.80;;;12.50;40.90;;;;;;10527186;28;20918;-72
2024/02/04 21:28:29;;;;;;;1.37;0.80;;;12.50;40.90;;;;;;10522344;28;20224;-72
2024/02/04 21:33:32;;;;;;;1.70;1.47;;;12.50;40.90;;;;;;10520486;28;20236;-72
2024/02/04 21:38:36;;;;;;;2.27;2.07;;;12.50;40.80;;;;;;10521651;28;20227;-72
2024/02/04 21:43:40;;;;;;;2.50;1.70;;;12.50;40.70;;;;;;10519582;28;20273;-72
2024/02/04 21:48:44;;;;;;;2.17;1.50;;;12.40;40.70;;;;;;10523205;28;20224;-72
2024/02/04 21:53:48;;;;;;;1.70;1.60;;;12.40;40.80;;;;;;10520789;28;20644;-72
2024/02/04 21:58:53;;;;;;;2.13;1.90;;;12.30;40.80;;;;;;10523159;27;20228;-72
2024/02/04 22:03:56;;;;;;;1.23;1.13;;;12.30;40.90;;;;;;10523925;28;20238;-72
2024/02/04 22:09:00;;;;;;;1.30;1.20;;;12.30;40.80;;;;;;10521455;28;20220;-72
2024/02/04 22:14:05;;;;;;;1.40;1.30;;;12.30;40.90;;;;;;10524183;28;20239;-71
2024/02/04 22:19:08;;;;;;;1.33;1.23;;;12.20;40.80;;;;;;10521542;28;20231;-72
2024/02/04 22:24:12;;;;;;;1.30;1.20;;;12.20;40.90;;;;;;10525625;28;20737;-72
2024/02/04 22:29:16;;;;;;;2.03;1.00;;;12.20;40.90;;;;;;10526608;28;20638;-72
2024/02/04 22:34:20;;;;;;;1.20;1.10;;;12.20;40.90;;;;;;10527653;28;20245;-70
2024/02/04 22:39:23;;;;;;;1.00;1.00;;;12.20;40.80;;;;;;10527150;28;21155;-72
2024/02/04 22:44:28;;;;;;;1.97;1.30;;;12.20;40.80;;;;;;10527893;28;20311;-72
2024/02/04 22:49:33;;;;;;;2.53;1.40;;;12.10;40.80;;;;;;10529235;28;20223;-68
2024/02/04 22:54:38;;;;;;;1.40;1.30;;;12.00;40.80;;;;;;10533302;28;20308;-70
2024/02/04 22:59:42;;;;;;;1.53;1.40;;;12.00;40.90;;;;;;10524794;28;20230;-70
2024/02/04 23:04:46;;;;;;;1.87;1.30;;;11.90;40.80;;;;;;10525633;28;20233;-70
2024/02/04 23:09:50;;;;;;;1.30;1.20;;;11.90;41.00;;;;;;10533892;28;20221;-68
2024/02/04 23:14:56;;;;;;;1.40;1.30;;;11.90;41.00;;;;;;10524613;28;20277;-68
2024/02/04 23:19:59;;;;;;;3.87;1.40;;;11.90;40.90;;;;;;10528353;28;20233;-72
2024/02/04 23:25:09;;;;;;;2.30;1.40;;;11.90;41.00;;;;;;10528474;28;20261;-68
2024/02/04 23:30:14;;;;;;;1.30;1.20;;;11.90;41.00;;;;;;10529711;28;20251;-72
2024/02/04 23:35:18;;;;;;;1.93;1.23;;;11.90;41.00;;;;;;10529095;28;20910;-68
2024/02/04 23:40:21;;;;;;;1.80;1.30;;;11.80;41.10;;;;;;10527596;28;20308;-72
2024/02/04 23:45:26;;;;;;;1.50;1.40;;;11.80;41.20;;;;;;10523419;28;20233;-72
2024/02/04 23:50:30;;;;;;;1.20;1.10;;;11.70;41.30;;;;;;10528159;28;20223;-70
2024/02/04 23:55:33;;;;;;;1.20;1.10;;;11.70;41.30;;;;;;10528864;28;20229;-73
